Time;durP1;ratioP1;P1;durP2;ratioP2;P2;SDS_P1;SDS_P2;PMS_P1;PMS_P2;Temp;Humidity;BMP_temperature;BMP_pressure;BME280_temperature;BME280_humidity;BME280_pressure;Samples;Min_cycle;Max_cycle;Signal;HPM_P1;HPM_P2
2023/09/01 00:00:27;;;;;;;;;;;;;;;;;;5064997;28;19952;-58
2023/09/01 00:02:53;;;;;;;;;;;;;;;;;;5058094;28;20380;-58
2023/09/01 00:05:19;;;;;;;;;;;;;;;;;;5063735;28;19971;-57
2023/09/01 00:07:44;;;;;;;;;;;;;;;;;;5061795;28;19917;-57
2023/09/01 00:10:10;;;;;;;;;;;;;;;;;;5056834;28;19947;-57
2023/09/01 00:12:36;;;;;;;;;;;;;;;;;;5061708;28;19913;-59
2023/09/01 00:15:03;;;;;;;;;;;;;;;;;;5068872;28;20348;-57
2023/09/01 00:17:29;;;;;;;;;;;;;;;;;;5054179;28;19974;-59
2023/09/01 00:19:54;;;;;;;;;;;;;;;;;;5067226;28;19920;-61
2023/09/01 00:22:20;;;;;;;;;;;;;;;;;;5065393;28;19959;-61
2023/09/01 00:24:46;;;;;;;;;;;;;;;;;;5060606;28;19917;-60
2023/09/01 00:27:12;;;;;;;;;;;;;;;;;;5060738;28;19970;-61
2023/09/01 00:29:38;;;;;;;;;;;;;;;;;;5059946;28;19923;-60
2023/09/01 00:32:04;;;;;;;;;;;;;;;;;;5060000;28;19913;-61
2023/09/01 00:34:30;;;;;;;;;;;;;;;;;;5071264;28;19975;-61
2023/09/01 00:36:56;;;;;;;;;;;;;;;;;;5070907;28;20118;-61
2023/09/01 00:39:22;;;;;;;;;;;;;;;;;;5070327;28;19962;-61
2023/09/01 00:41:47;;;;;;;;;;;;;;;;;;5069106;28;19916;-61
2023/09/01 00:44:14;;;;;;;;;;;;;;;;;;5064963;28;20388;-58
2023/09/01 00:46:43;;;;;;;;;;;;;;;;;;5066472;28;19962;-60
2023/09/01 00:49:09;;;;;;;;;;;;;;;;;;5073806;28;19916;-60
2023/09/01 00:51:35;;;;;;;;;;;;;;;;;;5068071;28;19916;-60
2023/09/01 00:54:02;;;;;;;;;;;;;;;;;;5072137;28;19920;-60
2023/09/01 00:56:28;;;;;;;;;;;;;;;;;;5061796;28;19917;-60
2023/09/01 00:58:54;;;;;;;;;;;;;;;;;;5063597;28;19912;-60
2023/09/01 01:01:20;;;;;;;;;;;;;;;;;;5062981;28;19967;-61
2023/09/01 01:03:47;;;;;;;;;;;;;;;;;;5067743;28;19960;-61
2023/09/01 01:06:13;;;;;;;;;;;;;;;;;;5067312;28;19965;-60
2023/09/01 01:08:39;;;;;;;;;;;;;;;;;;5061237;28;20015;-61
2023/09/01 01:11:06;;;;;;;;;;;;;;;;;;5067451;28;20073;-61
2023/09/01 01:13:34;;;;;;;;;;;;;;;;;;5057394;28;19954;-61
2023/09/01 01:16:00;;;;;;;;;;;;;;;;;;5062854;28;20015;-61
2023/09/01 01:18:26;;;;;;;;;;;;;;;;;;5071205;28;19943;-61
2023/09/01 01:20:52;;;;;;;;;;;;;;;;;;5070244;28;20283;-61
2023/09/01 01:23:19;;;;;;;;;;;;;;;;;;5070979;28;19912;-61
2023/09/01 01:25:46;;;;;;;;;;;;;;;;;;5065938;28;19965;-61
2023/09/01 01:28:12;;;;;;;;;;;;;;;;;;5057051;28;20357;-61
2023/09/01 01:30:38;;;;;;;;;;;;;;;;;;5060799;28;20002;-61
2023/09/01 01:33:03;;;;;;;;;;;;;;;;;;5071302;28;19916;-60
2023/09/01 01:35:29;;;;;;;;;;;;;;;;;;5064365;28;20384;-61
2023/09/01 01:37:55;;;;;;;;;;;;;;;;;;5065772;28;19919;-61
2023/09/01 01:40:21;;;;;;;;;;;;;;;;;;5069026;28;19912;-61
2023/09/01 01:42:48;;;;;;;;;;;;;;;;;;5067827;28;20376;-61
2023/09/01 01:45:14;;;;;;;;;;;;;;;;;;5070573;28;20434;-61
2023/09/01 01:47:40;;;;;;;;;;;;;;;;;;5069974;28;20011;-61
2023/09/01 01:50:06;;;;;;;;;;;;;;;;;;5067417;28;19956;-61
2023/09/01 01:52:32;;;;;;;;;;;;;;;;;;5059077;28;19955;-61
2023/09/01 01:54:58;;;;;;;;;;;;;;;;;;5070785;28;19952;-61
2023/09/01 01:57:24;;;;;;;;;;;;;;;;;;5061221;28;20359;-61
2023/09/01 01:59:50;;;;;;;;;;;;;;;;;;5062839;28;20000;-61
2023/09/01 02:02:16;;;;;;;;;;;;;;;;;;5067650;28;19947;-61
2023/09/01 02:04:42;;;;;;;;;;;;;;;;;;5059973;28;20395;-61
2023/09/01 02:07:08;;;;;;;;;;;;;;;;;;5058077;28;19917;-61
2023/09/01 02:09:34;;;;;;;;;;;;;;;;;;5073240;28;19916;-61
2023/09/01 02:12:00;;;;;;;;;;;;;;;;;;5067914;28;19917;-61
2023/09/01 02:14:25;;;;;;;;;;;;;;;;;;5064513;28;19948;-61
2023/09/01 02:16:51;;;;;;;;;;;;;;;;;;5066217;28;19913;-61
2023/09/01 02:19:17;;;;;;;;;;;;;;;;;;5070223;28;20023;-61
2023/09/01 02:21:45;;;;;;;;;;;;;;;;;;5053223;28;20376;-60
2023/09/01 02:24:11;;;;;;;;;;;;;;;;;;5084129;28;20394;-61
2023/09/01 02:26:36;;;;;;;;;;;;;;;;;;5074233;28;20003;-61
2023/09/01 02:29:05;;;;;;;;;;;;;;;;;;5065864;28;19952;-61
2023/09/01 02:31:30;;;;;;;;;;;;;;;;;;5060674;28;19917;-61
2023/09/01 02:33:57;;;;;;;;;;;;;;;;;;5067993;28;20434;-61
2023/09/01 02:36:25;;;;;;;;;;;;;;;;;;5069956;28;20005;-61
2023/09/01 02:38:51;;;;;;;;;;;;;;;;;;5064472;28;19913;-62
2023/09/01 02:41:17;;;;;;;;;;;;;;;;;;5067718;28;20269;-60
2023/09/01 02:43:44;;;;;;;;;;;;;;;;;;5066083;28;19909;-60
2023/09/01 02:46:10;;;;;;;;;;;;;;;;;;5066678;28;19952;-60
2023/09/01 02:48:36;;;;;;;;;;;;;;;;;;5057670;28;19966;-61
2023/09/01 02:51:04;;;;;;;;;;;;;;;;;;5069847;28;19916;-59
2023/09/01 02:53:30;;;;;;;;;;;;;;;;;;5055159;28;19916;-60
2023/09/01 02:55:56;;;;;;;;;;;;;;;;;;5059924;28;20422;-60
2023/09/01 02:58:22;;;;;;;;;;;;;;;;;;5066834;28;19920;-61
2023/09/01 03:00:48;;;;;;;;;;;;;;;;;;5063258;28;19963;-60
2023/09/01 03:03:14;;;;;;;;;;;;;;;;;;5057065;28;19944;-60
2023/09/01 03:05:40;;;;;;;;;;;;;;;;;;5062713;28;19909;-60
2023/09/01 03:08:06;;;;;;;;;;;;;;;;;;5060304;28;20407;-60
2023/09/01 03:10:32;;;;;;;;;;;;;;;;;;5065841;28;19916;-60
2023/09/01 03:12:58;;;;;;;;;;;;;;;;;;5073861;28;19909;-60
2023/09/01 03:15:24;;;;;;;;;;;;;;;;;;5068678;28;19960;-60
2023/09/01 03:17:50;;;;;;;;;;;;;;;;;;5062651;28;20387;-61
2023/09/01 03:20:15;;;;;;;;;;;;;;;;;;5062379;28;19920;-61
2023/09/01 03:22:41;;;;;;;;;;;;;;;;;;5063633;28;19917;-61
2023/09/01 03:25:10;;;;;;;;;;;;;;;;;;5065068;28;19908;-60
2023/09/01 03:27:37;;;;;;;;;;;;;;;;;;5057463;28;19921;-60
2023/09/01 03:30:03;;;;;;;;;;;;;;;;;;5062448;28;19960;-60
2023/09/01 03:32:29;;;;;;;;;;;;;;;;;;5060971;28;19924;-60
2023/09/01 03:34:55;;;;;;;;;;;;;;;;;;5066309;28;19912;-60
2023/09/01 03:37:22;;;;;;;;;;;;;;;;;;5059339;28;19912;-60
2023/09/01 03:39:48;;;;;;;;;;;;;;;;;;5060284;28;19936;-60
2023/09/01 03:42:14;;;;;;;;;;;;;;;;;;5058672;28;19963;-60
2023/09/01 03:44:39;;;;;;;;;;;;;;;;;;5058327;28;19943;-61
2023/09/01 03:47:05;;;;;;;;;;;;;;;;;;5071953;28;19971;-60
2023/09/01 03:49:31;;;;;;;;;;;;;;;;;;5059375;28;19960;-60
2023/09/01 03:51:57;;;;;;;;;;;;;;;;;;5065695;28;19913;-60
2023/09/01 03:54:23;;;;;;;;;;;;;;;;;;5064037;28;19944;-60
2023/09/01 03:56:50;;;;;;;;;;;;;;;;;;5062925;28;19948;-59
2023/09/01 03:59:15;;;;;;;;;;;;;;;;;;5062430;28;19917;-60
2023/09/01 04:01:44;;;;;;;;;;;;;;;;;;5055596;28;20431;-60
2023/09/01 04:04:10;;;;;;;;;;;;;;;;;;5054837;28;19912;-61
2023/09/01 04:06:36;;;;;;;;;;;;;;;;;;5060541;28;19956;-58
2023/09/01 04:09:03;;;;;;;;;;;;;;;;;;5068224;28;20010;-61
2023/09/01 04:11:29;;;;;;;;;;;;;;;;;;5065264;28;19920;-60
2023/09/01 04:13:55;;;;;;;;;;;;;;;;;;5067251;28;20327;-60
2023/09/01 04:16:21;;;;;;;;;;;;;;;;;;5077476;28;19913;-61
2023/09/01 04:18:47;;;;;;;;;;;;;;;;;;5054046;28;20098;-61
2023/09/01 04:21:13;;;;;;;;;;;;;;;;;;5052886;28;19925;-59
2023/09/01 04:23:40;;;;;;;;;;;;;;;;;;5055678;28;20015;-61
2023/09/01 04:26:06;;;;;;;;;;;;;;;;;;5056753;28;20377;-61
2023/09/01 04:28:32;;;;;;;;;;;;;;;;;;5064063;28;19968;-60
2023/09/01 04:30:59;;;;;;;;;;;;;;;;;;5057214;28;20018;-61
2023/09/01 04:33:26;;;;;;;;;;;;;;;;;;5063542;28;19920;-61
2023/09/01 04:35:52;;;;;;;;;;;;;;;;;;5054886;28;20396;-61
2023/09/01 04:38:17;;;;;;;;;;;;;;;;;;5064428;28;19938;-60
2023/09/01 04:40:43;;;;;;;;;;;;;;;;;;5067778;28;20003;-59
2023/09/01 04:43:09;;;;;;;;;;;;;;;;;;5067222;28;19920;-59
2023/09/01 04:45:35;;;;;;;;;;;;;;;;;;5060220;28;19928;-60
2023/09/01 04:48:01;;;;;;;;;;;;;;;;;;5056046;28;20422;-61
2023/09/01 04:50:27;;;;;;;;;;;;;;;;;;5063817;28;19948;-60
2023/09/01 04:52:54;;;;;;;;;;;;;;;;;;5060824;28;20018;-59
2023/09/01 04:55:19;;;;;;;;;;;;;;;;;;5063356;28;19917;-60
2023/09/01 04:57:45;;;;;;;;;;;;;;;;;;5060323;28;19971;-60
2023/09/01 05:00:18;;;;;;;;;;;;;;;;;;5060186;28;19917;-60
2023/09/01 05:02:43;;;;;;;;;;;;;;;;;;5061900;28;19916;-61
2023/09/01 05:05:09;;;;;;;;;;;;;;;;;;5062002;28;20331;-61
2023/09/01 05:07:35;;;;;;;;;;;;;;;;;;5061311;28;20426;-60
2023/09/01 05:10:01;;;;;;;;;;;;;;;;;;5066263;28;20014;-61
2023/09/01 05:12:27;;;;;;;;;;;;;;;;;;5069241;28;20011;-61
2023/09/01 05:14:53;;;;;;;;;;;;;;;;;;5058197;28;19916;-60
2023/09/01 05:17:19;;;;;;;;;;;;;;;;;;5065208;28;19952;-61
2023/09/01 05:19:45;;;;;;;;;;;;;;;;;;5064584;28;19919;-59
2023/09/01 05:22:11;;;;;;;;;;;;;;;;;;5070891;28;20273;-61
2023/09/01 05:24:39;;;;;;;;;;;;;;;;;;5074305;28;19908;-60
2023/09/01 05:27:04;;;;;;;;;;;;;;;;;;5074001;28;19921;-60
2023/09/01 05:29:30;;;;;;;;;;;;;;;;;;5073742;28;19922;-60
2023/09/01 05:31:56;;;;;;;;;;;;;;;;;;5068316;28;19920;-60
2023/09/01 05:34:22;;;;;;;;;;;;;;;;;;5070824;28;19962;-60
2023/09/01 05:36:48;;;;;;;;;;;;;;;;;;5073294;28;19967;-61
2023/09/01 05:39:14;;;;;;;;;;;;;;;;;;5069815;28;19992;-59
2023/09/01 05:41:40;;;;;;;;;;;;;;;;;;5061799;28;19991;-60
2023/09/01 05:44:06;;;;;;;;;;;;;;;;;;5067399;28;19939;-60
2023/09/01 05:46:32;;;;;;;;;;;;;;;;;;5064646;28;20341;-60
2023/09/01 05:48:58;;;;;;;;;;;;;;;;;;5073534;28;19922;-60
2023/09/01 05:51:24;;;;;;;;;;;;;;;;;;5073873;28;19912;-60
2023/09/01 05:53:50;;;;;;;;;;;;;;;;;;5074229;28;20007;-60
2023/09/01 05:56:16;;;;;;;;;;;;;;;;;;5071734;28;19917;-59
2023/09/01 05:58:42;;;;;;;;;;;;;;;;;;5062378;28;20283;-61
2023/09/01 06:01:08;;;;;;;;;;;;;;;;;;5066785;28;19908;-61
2023/09/01 06:03:34;;;;;;;;;;;;;;;;;;5073609;28;19908;-60
2023/09/01 06:06:00;;;;;;;;;;;;;;;;;;5073607;28;19948;-60
2023/09/01 06:08:25;;;;;;;;;;;;;;;;;;5073324;28;19951;-60
2023/09/01 06:10:51;;;;;;;;;;;;;;;;;;5071888;28;20386;-61
2023/09/01 06:13:17;;;;;;;;;;;;;;;;;;5072948;28;19953;-61
2023/09/01 06:15:43;;;;;;;;;;;;;;;;;;5068240;28;19913;-59
2023/09/01 06:18:09;;;;;;;;;;;;;;;;;;5069523;28;20379;-62
2023/09/01 06:20:35;;;;;;;;;;;;;;;;;;5056412;28;20030;-61
2023/09/01 06:23:01;;;;;;;;;;;;;;;;;;5070051;28;19913;-61
2023/09/01 06:25:27;;;;;;;;;;;;;;;;;;5065209;28;20369;-61
2023/09/01 06:27:53;;;;;;;;;;;;;;;;;;5067171;28;19926;-61
2023/09/01 06:30:19;;;;;;;;;;;;;;;;;;5060945;28;19960;-61
2023/09/01 06:32:45;;;;;;;;;;;;;;;;;;5072763;28;19967;-61
2023/09/01 06:35:10;;;;;;;;;;;;;;;;;;5070481;28;19974;-61
2023/09/01 06:37:36;;;;;;;;;;;;;;;;;;5072899;28;19955;-61
2023/09/01 06:40:04;;;;;;;;;;;;;;;;;;5072190;28;19947;-61
2023/09/01 06:42:29;;;;;;;;;;;;;;;;;;5072433;28;19916;-61
2023/09/01 06:44:55;;;;;;;;;;;;;;;;;;5071764;28;19999;-61
2023/09/01 06:47:21;;;;;;;;;;;;;;;;;;5072739;28;20295;-61
2023/09/01 06:49:47;;;;;;;;;;;;;;;;;;5067216;28;19908;-61
2023/09/01 06:52:14;;;;;;;;;;;;;;;;;;5068469;28;19912;-61
2023/09/01 06:54:40;;;;;;;;;;;;;;;;;;5072323;28;20043;-61
2023/09/01 06:57:06;;;;;;;;;;;;;;;;;;5072599;28;19956;-61
2023/09/01 06:59:32;;;;;;;;;;;;;;;;;;5070302;28;19908;-61
2023/09/01 07:01:58;;;;;;;;;;;;;;;;;;5072724;28;19920;-60
2023/09/01 07:04:23;;;;;;;;;;;;;;;;;;5072239;28;20315;-61
2023/09/01 07:06:49;;;;;;;;;;;;;;;;;;5072180;28;19978;-60
2023/09/01 07:09:15;;;;;;;;;;;;;;;;;;5072182;28;19913;-61
2023/09/01 07:11:41;;;;;;;;;;;;;;;;;;5071706;28;19908;-61
2023/09/01 07:14:07;;;;;;;;;;;;;;;;;;5071901;28;19916;-60
2023/09/01 07:16:33;;;;;;;;;;;;;;;;;;5072184;28;19992;-61
2023/09/01 07:18:59;;;;;;;;;;;;;;;;;;5069210;28;19985;-61
2023/09/01 07:21:25;;;;;;;;;;;;;;;;;;5071688;28;20372;-58
2023/09/01 07:23:51;;;;;;;;;;;;;;;;;;5071901;28;19991;-57
2023/09/01 07:26:17;;;;;;;;;;;;;;;;;;5071988;28;20283;-57
2023/09/01 07:28:44;;;;;;;;;;;;;;;;;;5071039;28;22715;-57
2023/09/01 07:31:11;;;;;;;;;;;;;;;;;;5066621;28;19940;-57
2023/09/01 07:33:36;;;;;;;;;;;;;;;;;;5057468;28;19920;-59
2023/09/01 07:36:02;;;;;;;;;;;;;;;;;;5067162;28;19955;-58
2023/09/01 07:38:28;;;;;;;;;;;;;;;;;;5066848;28;19938;-57
2023/09/01 07:40:54;;;;;;;;;;;;;;;;;;5071482;28;20003;-57
2023/09/01 07:43:20;;;;;;;;;;;;;;;;;;5064645;28;19912;-56
2023/09/01 07:45:46;;;;;;;;;;;;;;;;;;5066197;28;19923;-56
2023/09/01 07:48:12;;;;;;;;;;;;;;;;;;5068966;28;20036;-57
2023/09/01 07:50:38;;;;;;;;;;;;;;;;;;5069714;28;19908;-57
2023/09/01 07:53:04;;;;;;;;;;;;;;;;;;5075772;28;19954;-57
2023/09/01 07:55:30;;;;;;;;;;;;;;;;;;5066275;28;19940;-58
2023/09/01 07:57:55;;;;;;;;;;;;;;;;;;5070428;28;19952;-57
2023/09/01 08:00:22;;;;;;;;;;;;;;;;;;5070416;28;20007;-60
2023/09/01 08:02:48;;;;;;;;;;;;;;;;;;5062121;28;20268;-58
2023/09/01 08:05:14;;;;;;;;;;;;;;;;;;5068560;28;20007;-59
2023/09/01 08:07:40;;;;;;;;;;;;;;;;;;5067219;28;20007;-57
2023/09/01 08:10:09;;;;;;;;;;;;;;;;;;5061423;28;19913;-57
2023/09/01 08:12:35;;;;;;;;;;;;;;;;;;5065309;28;19928;-57
2023/09/01 08:15:00;;;;;;;;;;;;;;;;;;5065633;28;19943;-56
2023/09/01 08:17:26;;;;;;;;;;;;;;;;;;5064205;28;19913;-57
2023/09/01 08:19:52;;;;;;;;;;;;;;;;;;5064598;28;20353;-58
2023/09/01 08:22:18;;;;;;;;;;;;;;;;;;5068052;28;19913;-57
2023/09/01 08:24:44;;;;;;;;;;;;;;;;;;5064790;28;19912;-56
2023/09/01 08:27:10;;;;;;;;;;;;;;;;;;5064851;28;19913;-57
2023/09/01 08:29:38;;;;;;;;;;;;;;;;;;5069719;28;20501;-59
2023/09/01 08:32:04;;;;;;;;;;;;;;;;;;5069971;28;20045;-57
2023/09/01 08:34:31;;;;;;;;;;;;;;;;;;5069696;28;19943;-57
2023/09/01 08:36:57;;;;;;;;;;;;;;;;;;5070397;28;20554;-57
2023/09/01 08:39:23;;;;;;;;;;;;;;;;;;5067324;28;19939;-56
2023/09/01 08:41:49;;;;;;;;;;;;;;;;;;5066113;28;19960;-57
2023/09/01 08:44:15;;;;;;;;;;;;;;;;;;5064052;28;20545;-57
2023/09/01 08:46:41;;;;;;;;;;;;;;;;;;5065555;28;19917;-57
2023/09/01 08:49:06;;;;;;;;;;;;;;;;;;5068395;28;19966;-58
2023/09/01 08:51:32;;;;;;;;;;;;;;;;;;5070286;28;20007;-57
2023/09/01 08:53:58;;;;;;;;;;;;;;;;;;5074941;28;20233;-57
2023/09/01 08:56:24;;;;;;;;;;;;;;;;;;5064313;28;20385;-57
2023/09/01 08:58:50;;;;;;;;;;;;;;;;;;5063949;28;19942;-57
2023/09/01 09:01:16;;;;;;;;;;;;;;;;;;5072563;28;19993;-57
2023/09/01 09:03:42;;;;;;;;;;;;;;;;;;5072308;28;19936;-56
2023/09/01 09:06:08;;;;;;;;;;;;;;;;;;5074745;28;20349;-57
2023/09/01 09:08:37;;;;;;;;;;;;;;;;;;5073795;28;20339;-56
2023/09/01 09:11:03;;;;;;;;;;;;;;;;;;5074174;28;19954;-56
2023/09/01 09:13:28;;;;;;;;;;;;;;;;;;5072845;28;20291;-56
2023/09/01 09:15:54;;;;;;;;;;;;;;;;;;5074543;28;19956;-57
2023/09/01 09:18:20;;;;;;;;;;;;;;;;;;5074254;28;19948;-56
2023/09/01 09:20:47;;;;;;;;;;;;;;;;;;5074031;28;20444;-57
2023/09/01 09:23:13;;;;;;;;;;;;;;;;;;5074540;28;20271;-56
2023/09/01 09:25:39;;;;;;;;;;;;;;;;;;5074422;28;19966;-57
2023/09/01 09:28:05;;;;;;;;;;;;;;;;;;5074032;28;19955;-57
2023/09/01 09:30:31;;;;;;;;;;;;;;;;;;5070557;28;19917;-56
2023/09/01 09:32:56;;;;;;;;;;;;;;;;;;5067744;28;20007;-56
2023/09/01 09:35:24;;;;;;;;;;;;;;;;;;5072916;28;19916;-57
2023/09/01 09:37:50;;;;;;;;;;;;;;;;;;5074255;28;19918;-58
2023/09/01 09:40:16;;;;;;;;;;;;;;;;;;5073970;28;19999;-60
2023/09/01 09:42:42;;;;;;;;;;;;;;;;;;5072394;28;19912;-61
2023/09/01 09:45:08;;;;;;;;;;;;;;;;;;5073996;28;19926;-61
2023/09/01 09:47:34;;;;;;;;;;;;;;;;;;5073658;28;19966;-61
2023/09/01 09:50:00;;;;;;;;;;;;;;;;;;5071919;28;20019;-61
2023/09/01 09:52:26;;;;;;;;;;;;;;;;;;5073710;28;19908;-60
2023/09/01 09:54:57;;;;;;;;;;;;;;;;;;5073931;28;19915;-60
2023/09/01 09:57:22;;;;;;;;;;;;;;;;;;5073415;28;19944;-60
2023/09/01 09:59:48;;;;;;;;;;;;;;;;;;5073414;28;19982;-59
2023/09/01 10:02:14;;;;;;;;;;;;;;;;;;5072306;28;20262;-61
2023/09/01 10:04:40;;;;;;;;;;;;;;;;;;5072033;28;19916;-60
2023/09/01 10:07:06;;;;;;;;;;;;;;;;;;5073531;28;19915;-62
2023/09/01 10:09:32;;;;;;;;;;;;;;;;;;5073500;28;19915;-60
2023/09/01 10:11:58;;;;;;;;;;;;;;;;;;5065790;28;20007;-60
2023/09/01 10:14:24;;;;;;;;;;;;;;;;;;5066517;28;20360;-61
2023/09/01 10:16:50;;;;;;;;;;;;;;;;;;5073395;28;19916;-60
2023/09/01 10:19:16;;;;;;;;;;;;;;;;;;5073573;28;19951;-61
2023/09/01 10:21:42;;;;;;;;;;;;;;;;;;5071352;28;20059;-61
2023/09/01 10:24:08;;;;;;;;;;;;;;;;;;5073225;28;19944;-61
2023/09/01 10:26:34;;;;;;;;;;;;;;;;;;5073051;28;19979;-61
2023/09/01 10:29:00;;;;;;;;;;;;;;;;;;5072840;28;19924;-61
2023/09/01 10:31:26;;;;;;;;;;;;;;;;;;5072758;28;20311;-62
2023/09/01 10:33:52;;;;;;;;;;;;;;;;;;5066973;28;19998;-60
2023/09/01 10:36:18;;;;;;;;;;;;;;;;;;5072480;28;20348;-61
2023/09/01 10:38:44;;;;;;;;;;;;;;;;;;5072950;28;19915;-61
2023/09/01 10:41:10;;;;;;;;;;;;;;;;;;5071035;28;19921;-62
2023/09/01 10:43:41;;;;;;;;;;;;;;;;;;5070556;28;19995;-61
2023/09/01 10:46:07;;;;;;;;;;;;;;;;;;5073283;28;19936;-61
2023/09/01 10:48:33;;;;;;;;;;;;;;;;;;5072766;28;19981;-62
2023/09/01 10:50:58;;;;;;;;;;;;;;;;;;5071132;28;19955;-58
2023/09/01 10:53:24;;;;;;;;;;;;;;;;;;5058801;28;20066;-57
2023/09/01 10:55:50;;;;;;;;;;;;;;;;;;5071332;28;20360;-58
2023/09/01 10:58:16;;;;;;;;;;;;;;;;;;5072464;28;19908;-57
2023/09/01 11:00:42;;;;;;;;;;;;;;;;;;5072266;28;20094;-57
2023/09/01 11:03:08;;;;;;;;;;;;;;;;;;5071038;28;19952;-57
2023/09/01 11:05:34;;;;;;;;;;;;;;;;;;5072442;28;19963;-58
2023/09/01 11:08:00;;;;;;;;;;;;;;;;;;5061927;28;20118;-57
2023/09/01 11:10:26;;;;;;;;;;;;;;;;;;5068178;28;20435;-58
2023/09/01 11:12:52;;;;;;;;;;;;;;;;;;5069506;28;19917;-59
2023/09/01 11:15:18;;;;;;;;;;;;;;;;;;5072296;28;19908;-57
2023/09/01 11:17:45;;;;;;;;;;;;;;;;;;5072173;28;19947;-57
2023/09/01 11:20:10;;;;;;;;;;;;;;;;;;5069789;28;20375;-56
2023/09/01 11:22:36;;;;;;;;;;;;;;;;;;5069872;28;19959;-57
2023/09/01 11:25:03;;;;;;;;;;;;;;;;;;5071692;28;19908;-58
2023/09/01 11:27:28;;;;;;;;;;;;;;;;;;5072202;28;20451;-57
2023/09/01 11:29:54;;;;;;;;;;;;;;;;;;5071694;28;19994;-57
2023/09/01 11:32:20;;;;;;;;;;;;;;;;;;5068965;28;20003;-60
2023/09/01 11:34:49;;;;;;;;;;;;;;;;;;5070288;28;20390;-57
2023/09/01 11:37:15;;;;;;;;;;;;;;;;;;5061451;28;19996;-58
2023/09/01 11:39:41;;;;;;;;;;;;;;;;;;5052761;28;21693;-58
2023/09/01 11:42:07;;;;;;;;;;;;;;;;;;5062713;28;19996;-58
2023/09/01 11:44:33;;;;;;;;;;;;;;;;;;5071716;28;20372;-58
2023/09/01 11:46:59;;;;;;;;;;;;;;;;;;5069359;28;19951;-58
2023/09/01 11:49:25;;;;;;;;;;;;;;;;;;5071498;28;20026;-58
2023/09/01 11:51:51;;;;;;;;;;;;;;;;;;5062653;28;19913;-57
2023/09/01 11:54:17;;;;;;;;;;;;;;;;;;5067560;28;19912;-57
2023/09/01 11:56:43;;;;;;;;;;;;;;;;;;5066960;28;19948;-58
2023/09/01 11:59:09;;;;;;;;;;;;;;;;;;5071669;28;19916;-60
2023/09/01 12:01:35;;;;;;;;;;;;;;;;;;5069817;28;19913;-59
2023/09/01 12:04:01;;;;;;;;;;;;;;;;;;5069447;28;19916;-60
2023/09/01 12:06:27;;;;;;;;;;;;;;;;;;5071974;28;20534;-59
2023/09/01 12:08:53;;;;;;;;;;;;;;;;;;5070281;28;19913;-58
2023/09/01 12:11:19;;;;;;;;;;;;;;;;;;5068456;28;19909;-59
2023/09/01 12:13:45;;;;;;;;;;;;;;;;;;5071517;28;19969;-59
2023/09/01 12:16:11;;;;;;;;;;;;;;;;;;5070952;28;19909;-60
2023/09/01 12:18:38;;;;;;;;;;;;;;;;;;5070658;28;20372;-57
2023/09/01 12:21:04;;;;;;;;;;;;;;;;;;5068590;28;19997;-57
2023/09/01 12:23:30;;;;;;;;;;;;;;;;;;5069066;28;19967;-58
2023/09/01 12:25:56;;;;;;;;;;;;;;;;;;5065937;28;19913;-58
2023/09/01 12:28:22;;;;;;;;;;;;;;;;;;5068391;28;19970;-57
2023/09/01 12:30:48;;;;;;;;;;;;;;;;;;5074790;28;20024;-58
2023/09/01 12:33:14;;;;;;;;;;;;;;;;;;5066037;28;19940;-57
2023/09/01 12:35:40;;;;;;;;;;;;;;;;;;5067351;28;19919;-57
2023/09/01 12:38:06;;;;;;;;;;;;;;;;;;5072464;28;20011;-58
2023/09/01 12:40:32;;;;;;;;;;;;;;;;;;5072589;28;20024;-57
2023/09/01 12:42:58;;;;;;;;;;;;;;;;;;5074997;28;19916;-57
2023/09/01 12:45:23;;;;;;;;;;;;;;;;;;5074849;28;20275;-58
2023/09/01 12:47:49;;;;;;;;;;;;;;;;;;5074360;28;19955;-58
2023/09/01 12:50:15;;;;;;;;;;;;;;;;;;5074553;28;20006;-57
2023/09/01 12:52:41;;;;;;;;;;;;;;;;;;5074733;28;19908;-57
2023/09/01 12:55:07;;;;;;;;;;;;;;;;;;5074513;28;19912;-58
2023/09/01 12:57:33;;;;;;;;;;;;;;;;;;5068797;28;20399;-57
2023/09/01 12:59:59;;;;;;;;;;;;;;;;;;5068864;28;19913;-57
2023/09/01 13:02:25;;;;;;;;;;;;;;;;;;5073311;28;19931;-57
2023/09/01 13:04:51;;;;;;;;;;;;;;;;;;5073085;28;19919;-57
2023/09/01 13:07:17;;;;;;;;;;;;;;;;;;5074707;28;19916;-57
2023/09/01 13:09:42;;;;;;;;;;;;;;;;;;5070444;28;19963;-57
2023/09/01 13:12:08;;;;;;;;;;;;;;;;;;5070882;28;19952;-58
2023/09/01 13:14:34;;;;;;;;;;;;;;;;;;5063853;28;19942;-57
2023/09/01 13:17:00;;;;;;;;;;;;;;;;;;5063664;28;19990;-56
2023/09/01 13:19:26;;;;;;;;;;;;;;;;;;5056716;28;19956;-56
2023/09/01 13:21:52;;;;;;;;;;;;;;;;;;5070412;28;19923;-55
2023/09/01 13:24:18;;;;;;;;;;;;;;;;;;5079283;28;19952;-55
2023/09/01 13:26:44;;;;;;;;;;;;;;;;;;5067240;28;20279;-58
2023/09/01 13:29:10;;;;;;;;;;;;;;;;;;5064334;28;19960;-57
2023/09/01 13:31:36;;;;;;;;;;;;;;;;;;5068590;28;20368;-58
2023/09/01 13:34:02;;;;;;;;;;;;;;;;;;5067735;28;19919;-56
2023/09/01 13:36:28;;;;;;;;;;;;;;;;;;5063554;28;19924;-57
2023/09/01 13:38:54;;;;;;;;;;;;;;;;;;5058310;28;20002;-58
2023/09/01 13:41:19;;;;;;;;;;;;;;;;;;5062193;28;19959;-58
2023/09/01 13:43:45;;;;;;;;;;;;;;;;;;5068983;28;19913;-60
2023/09/01 13:46:11;;;;;;;;;;;;;;;;;;5063255;28;20061;-57
2023/09/01 13:48:37;;;;;;;;;;;;;;;;;;5065806;28;19951;-57
2023/09/01 13:51:03;;;;;;;;;;;;;;;;;;5064752;28;19984;-57
2023/09/01 13:53:29;;;;;;;;;;;;;;;;;;5067715;28;19913;-58
2023/09/01 13:55:55;;;;;;;;;;;;;;;;;;5071179;28;19960;-57
2023/09/01 13:58:21;;;;;;;;;;;;;;;;;;5067691;28;20019;-58
2023/09/01 14:00:47;;;;;;;;;;;;;;;;;;5062855;28;19919;-58
2023/09/01 14:03:12;;;;;;;;;;;;;;;;;;5066524;28;19917;-59
2023/09/01 14:05:38;;;;;;;;;;;;;;;;;;5060587;28;19994;-57
2023/09/01 14:08:04;;;;;;;;;;;;;;;;;;5062301;28;19958;-59
2023/09/01 14:10:30;;;;;;;;;;;;;;;;;;5055343;28;20011;-61
2023/09/01 14:12:56;;;;;;;;;;;;;;;;;;5057576;28;19916;-58
2023/09/01 14:15:22;;;;;;;;;;;;;;;;;;5053807;28;19921;-58
2023/09/01 14:17:48;;;;;;;;;;;;;;;;;;5059709;28;19990;-58
2023/09/01 14:20:14;;;;;;;;;;;;;;;;;;5060579;28;19931;-60
2023/09/01 14:22:40;;;;;;;;;;;;;;;;;;5069612;28;19916;-59
2023/09/01 14:25:06;;;;;;;;;;;;;;;;;;5065540;28;20013;-61
2023/09/01 14:27:32;;;;;;;;;;;;;;;;;;5063893;28;19920;-60
2023/09/01 14:29:57;;;;;;;;;;;;;;;;;;5064800;28;19979;-61
2023/09/01 14:32:23;;;;;;;;;;;;;;;;;;5068696;28;19918;-59
2023/09/01 14:34:49;;;;;;;;;;;;;;;;;;5067965;28;20091;-59
2023/09/01 14:37:15;;;;;;;;;;;;;;;;;;5062001;28;20005;-60
2023/09/01 14:39:41;;;;;;;;;;;;;;;;;;5070659;28;19920;-60
2023/09/01 14:42:07;;;;;;;;;;;;;;;;;;5069344;28;19917;-59
2023/09/01 14:44:33;;;;;;;;;;;;;;;;;;5065310;28;20005;-61
2023/09/01 14:46:59;;;;;;;;;;;;;;;;;;5060329;28;20261;-60
2023/09/01 14:49:25;;;;;;;;;;;;;;;;;;5061755;28;20457;-60
2023/09/01 14:51:51;;;;;;;;;;;;;;;;;;5064567;28;19921;-59
2023/09/01 14:54:16;;;;;;;;;;;;;;;;;;5063484;28;19916;-60
2023/09/01 14:56:42;;;;;;;;;;;;;;;;;;5060675;28;20018;-59
2023/09/01 14:59:08;;;;;;;;;;;;;;;;;;5066719;28;20011;-60
2023/09/01 15:01:36;;;;;;;;;;;;;;;;;;5061236;28;19913;-60
2023/09/01 15:04:02;;;;;;;;;;;;;;;;;;5068871;28;19912;-59
2023/09/01 15:06:28;;;;;;;;;;;;;;;;;;5061702;28;19979;-60
2023/09/01 15:08:54;;;;;;;;;;;;;;;;;;5068703;28;19970;-59
2023/09/01 15:11:20;;;;;;;;;;;;;;;;;;5069899;28;19958;-59
2023/09/01 15:13:46;;;;;;;;;;;;;;;;;;5071386;28;19908;-58
2023/09/01 15:16:12;;;;;;;;;;;;;;;;;;5050721;28;19917;-60
2023/09/01 15:18:37;;;;;;;;;;;;;;;;;;5059574;28;19958;-59
2023/09/01 15:21:03;;;;;;;;;;;;;;;;;;5071379;28;19923;-58
2023/09/01 15:23:29;;;;;;;;;;;;;;;;;;5068816;28;19956;-59
2023/09/01 15:25:55;;;;;;;;;;;;;;;;;;5066074;28;19951;-59
2023/09/01 15:28:21;;;;;;;;;;;;;;;;;;5071032;28;20091;-59
2023/09/01 15:30:47;;;;;;;;;;;;;;;;;;5061400;28;19918;-59
2023/09/01 15:33:13;;;;;;;;;;;;;;;;;;5057968;28;20044;-59
2023/09/01 15:35:39;;;;;;;;;;;;;;;;;;5060322;28;19912;-58
2023/09/01 15:38:05;;;;;;;;;;;;;;;;;;5063435;28;19959;-59
2023/09/01 15:40:30;;;;;;;;;;;;;;;;;;5063097;28;19954;-58
2023/09/01 15:42:56;;;;;;;;;;;;;;;;;;5062096;28;20238;-60
2023/09/01 15:45:22;;;;;;;;;;;;;;;;;;5061244;28;19912;-58
2023/09/01 15:47:48;;;;;;;;;;;;;;;;;;5061083;28;20407;-59
2023/09/01 15:50:14;;;;;;;;;;;;;;;;;;5064169;28;19982;-59
2023/09/01 15:52:40;;;;;;;;;;;;;;;;;;5062182;28;20330;-60
2023/09/01 15:55:06;;;;;;;;;;;;;;;;;;5065638;28;19951;-60
2023/09/01 15:57:32;;;;;;;;;;;;;;;;;;5065553;28;19997;-59
2023/09/01 15:59:58;;;;;;;;;;;;;;;;;;5065648;28;19912;-59
2023/09/01 16:02:24;;;;;;;;;;;;;;;;;;5064582;28;20008;-59
2023/09/01 16:04:50;;;;;;;;;;;;;;;;;;5064492;28;19960;-59
2023/09/01 16:07:16;;;;;;;;;;;;;;;;;;5063880;28;19966;-59
2023/09/01 16:09:42;;;;;;;;;;;;;;;;;;5065110;28;19913;-59
2023/09/01 16:12:08;;;;;;;;;;;;;;;;;;5061515;28;19917;-59
2023/09/01 16:14:34;;;;;;;;;;;;;;;;;;5061202;28;19966;-59
2023/09/01 16:17:00;;;;;;;;;;;;;;;;;;5064224;28;19975;-59
2023/09/01 16:19:26;;;;;;;;;;;;;;;;;;5065800;28;20015;-58
2023/09/01 16:21:52;;;;;;;;;;;;;;;;;;5066439;28;19995;-59
2023/09/01 16:24:17;;;;;;;;;;;;;;;;;;5070367;28;19999;-59
2023/09/01 16:26:43;;;;;;;;;;;;;;;;;;5068110;28;20105;-59
2023/09/01 16:29:09;;;;;;;;;;;;;;;;;;5069836;28;20007;-58
2023/09/01 16:31:37;;;;;;;;;;;;;;;;;;5070357;28;19959;-58
2023/09/01 16:34:03;;;;;;;;;;;;;;;;;;5069168;28;19966;-59
2023/09/01 16:36:29;;;;;;;;;;;;;;;;;;5075071;28;20339;-59